Terminal Aerodrome Forecast
Issued by NWS

Home | Current Version | Previous Version | Text Only | Print | Product List | Glossary On
Versions: 1 2 3 4 5 6 7 8 9 10 11 12 13 14 15 16 17 18 19 20 21 22 23 24 25 26
419
FTUS44 KLZK 181721
TAFHOT
TAF
KHOT 181721Z 1818/1918 31004KT P6SM OVC012
     FM182000 23003KT P6SM FEW250
     FM190300 VRB03KT 6SM BR SCT005 BKN010
     FM190700 VRB03KT 1SM BR VCSH OVC005=

USA.gov is the U.S. government's official web portal to all federal, state and local government web resources and services.